.
WxDataArchive / Data Records for 2015-11-16
2015-11-15 November 2015 2015-11-17

Data Records for Monday, 16 November 2015

Time	Temp	Chill	HIndex	Humid	Dewpt	 Wind 	HiWind	WindDir	Rain 	Barom
-----	----	-----	------	-----	-----	------	------	-------	-----	-----
00:00	45.4	45.4	45.4	59	31.9	0	0	---	0.00	30.209 
00:05	45.2	45.2	45.2	60	32.1	0	0	---	0.00	30.209 
00:10	45.1	45.1	45.1	60	32.1	0	0	---	0.00	30.209 
00:15	44.9	44.9	44.9	61	32.3	0	0	---	0.00	30.212 
00:20	44.6	44.6	44.6	61	32.0	0	0	---	0.00	30.212 
00:25	44.3	44.3	44.3	61	31.7	0	1	270	0.00	30.212 
00:30	44.3	44.3	44.3	61	31.7	0	0	---	0.00	30.209 
00:35	44.2	44.2	44.2	61	31.6	0	0	---	0.00	30.209 
00:40	44.1	44.1	44.1	61	31.5	0	0	---	0.00	30.209 
00:45	43.9	43.9	43.9	62	31.7	0	0	---	0.00	30.211 
00:50	43.8	43.8	43.8	62	31.6	0	0	---	0.00	30.211 
00:55	43.6	43.6	43.6	62	31.5	0	0	---	0.00	30.211 
01:00	43.2	43.2	43.2	63	31.5	0	0	---	0.00	30.213 
01:05	42.9	42.9	42.9	63	31.2	0	0	---	0.00	30.213 
01:10	42.6	42.6	42.6	64	31.3	0	0	---	0.00	30.213 
01:15	42.2	42.2	42.2	64	30.9	0	0	---	0.00	30.217 
01:20	41.9	41.9	41.9	65	31.0	0	0	---	0.00	30.217 
01:25	41.6	41.6	41.6	66	31.1	0	0	---	0.00	30.217 
01:30	41.5	41.5	41.5	66	31.0	0	0	---	0.00	30.220 
01:35	41.2	41.2	41.2	67	31.1	0	0	---	0.00	30.220 
01:40	40.9	40.9	40.9	68	31.2	0	0	---	0.00	30.220 
01:45	40.8	40.8	40.8	68	31.1	0	0	---	0.00	30.222 
01:50	40.6	40.6	40.6	69	31.2	0	0	---	0.00	30.222 
01:55	40.3	40.3	40.3	69	31.0	0	0	---	0.00	30.222 
02:00	40.1	40.1	40.1	69	30.8	0	0	---	0.00	30.220 
02:05	39.6	39.6	39.6	70	30.6	0	0	---	0.00	30.220 
02:10	39.3	39.3	39.3	71	30.7	0	0	---	0.00	30.220 
02:15	39.1	39.1	39.1	71	30.5	0	0	---	0.00	30.225 
02:20	38.8	38.8	38.8	72	30.6	0	0	---	0.00	30.225 
02:25	38.5	38.5	38.5	72	30.3	0	0	---	0.00	30.225 
02:30	38.2	38.2	38.2	73	30.3	0	0	---	0.00	30.224 
02:35	37.9	37.9	37.9	73	30.0	0	0	---	0.00	30.224 
02:40	37.6	37.6	37.6	74	30.1	0	0	---	0.00	30.224 
02:45	37.3	37.3	37.3	74	29.8	0	0	---	0.00	30.226 
02:50	37.0	37.0	37.0	75	29.8	0	0	---	0.00	30.226 
02:55	36.9	36.9	36.9	76	30.1	0	0	---	0.00	30.226 
03:00	36.6	36.6	36.6	76	29.8	0	0	---	0.00	30.227 
03:05	36.3	36.3	36.3	76	29.5	0	0	---	0.00	30.227 
03:10	36.2	36.2	36.2	77	29.7	0	0	---	0.00	30.227 
03:15	36.0	36.0	36.0	78	29.8	0	0	---	0.00	30.226 
03:20	35.9	35.9	35.9	79	30.0	0	0	---	0.00	30.226 
03:25	35.8	35.8	35.8	79	29.9	0	0	---	0.00	30.226 
03:30	35.6	35.6	35.6	80	30.1	0	0	---	0.00	30.224 
03:35	35.5	35.5	35.5	80	30.0	0	0	---	0.00	30.224 
03:40	35.3	35.3	35.3	80	29.8	0	0	---	0.00	30.224 
03:45	35.2	35.2	35.2	81	30.0	0	0	---	0.00	30.223 
03:50	35.0	35.0	35.0	81	29.8	0	0	---	0.00	30.223 
03:55	35.0	35.0	35.0	81	29.8	0	0	---	0.00	30.223 
04:00	35.0	35.0	35.0	81	29.8	0	0	---	0.00	30.216 
04:05	34.9	34.9	34.9	81	29.7	0	0	---	0.00	30.216 
04:10	34.7	34.7	34.7	82	29.8	0	0	---	0.00	30.216 
04:15	34.6	34.6	34.6	82	29.7	0	0	---	0.00	30.217 
04:20	34.4	34.4	34.4	82	29.5	0	0	---	0.00	30.217 
04:25	34.4	34.4	34.4	82	29.5	0	0	---	0.00	30.217 
04:30	34.3	34.3	34.3	82	29.4	0	0	---	0.00	30.218 
04:35	34.1	34.1	34.1	82	29.2	0	0	---	0.00	30.218 
04:40	34.0	34.0	34.0	83	29.4	0	0	---	0.00	30.218 
04:45	33.8	33.8	33.8	83	29.2	0	0	---	0.00	30.220 
04:50	33.7	33.7	33.7	83	29.1	0	0	---	0.00	30.220 
04:55	33.5	33.5	33.5	83	28.9	0	0	---	0.00	30.220 
05:00	33.4	33.4	33.4	84	29.1	0	0	---	0.00	30.224 
05:05	33.4	33.4	33.4	84	29.1	0	0	---	0.00	30.224 
05:10	33.4	33.4	33.4	84	29.1	0	0	---	0.00	30.224 
05:15	33.2	33.2	33.2	85	29.2	0	0	---	0.00	30.229 
05:20	33.1	33.1	33.1	85	29.1	0	0	---	0.00	30.229 
05:25	33.1	33.1	33.1	85	29.1	0	0	---	0.00	30.229 
05:30	33.1	33.1	33.1	86	29.4	0	0	---	0.00	30.233 
05:35	33.1	33.1	33.1	86	29.4	0	0	---	0.00	30.233 
05:40	32.9	32.9	32.9	86	29.2	0	0	---	0.00	30.233 
05:45	32.9	32.9	32.9	86	29.2	0	0	---	0.00	30.230 
05:50	32.8	32.8	32.8	86	29.1	0	0	---	0.00	30.230 
05:55	32.8	32.8	32.8	86	29.1	0	0	---	0.00	30.230 
06:00	32.7	32.7	32.7	87	29.3	0	0	---	0.00	30.229 
06:05	32.7	32.7	32.7	87	29.3	0	0	---	0.00	30.229 
06:10	32.7	32.7	32.7	87	29.3	0	0	---	0.00	30.229 
06:15	32.5	32.5	32.5	87	29.1	0	0	---	0.00	30.234 
06:20	32.4	32.4	32.4	87	29.0	0	0	---	0.00	30.234 
06:25	32.4	32.4	32.4	87	29.0	0	0	---	0.00	30.234 
06:30	32.4	32.4	32.4	88	29.3	0	0	---	0.00	30.234 
06:35	32.4	32.4	32.4	88	29.3	0	0	---	0.00	30.234 
06:40	32.4	32.4	32.4	88	29.3	0	0	---	0.00	30.234 
06:45	32.4	32.4	32.4	88	29.3	0	0	---	0.00	30.231 
06:50	32.5	32.5	32.5	88	29.3	0	0	---	0.00	30.231 
06:55	32.5	32.5	32.5	88	29.3	0	0	---	0.00	30.231 
07:00	32.5	32.5	32.5	88	29.3	0	0	---	0.00	30.234 
07:05	32.5	32.5	32.5	88	29.3	0	0	---	0.00	30.234 
07:10	32.5	32.5	32.5	88	29.3	0	0	---	0.00	30.234 
07:15	32.5	32.5	32.5	88	29.3	0	0	---	0.00	30.237 
07:20	32.4	32.4	32.4	88	29.3	0	0	---	0.00	30.237 
07:25	32.4	32.4	32.4	88	29.3	0	0	---	0.00	30.237 
07:30	32.2	32.2	32.2	88	29.1	0	0	---	0.00	30.242 
07:35	32.2	32.2	32.2	88	29.1	0	0	---	0.00	30.242 
07:40	32.2	32.2	32.2	88	29.1	0	0	---	0.00	30.242 
07:45	32.2	32.2	32.2	88	29.1	0	0	---	0.00	30.244 
07:50	32.4	32.4	32.4	89	29.5	0	0	---	0.00	30.244 
07:55	32.5	32.5	32.5	89	29.6	0	0	---	0.00	30.244 
08:00	32.8	32.8	32.8	90	30.2	0	0	---	0.00	30.242 
08:05	33.2	33.2	33.2	90	30.6	0	0	---	0.00	30.242 
08:10	34.1	34.1	34.1	90	31.5	0	1	270	0.00	30.242 
08:15	35.0	35.0	35.0	89	32.1	0	0	---	0.00	30.237 
08:20	36.0	36.0	36.0	87	32.5	0	0	---	0.00	30.237 
08:25	37.0	37.0	37.0	85	32.9	0	0	---	0.00	30.237 
08:30	37.9	37.9	37.9	83	33.2	0	0	---	0.00	30.242 
08:35	38.3	38.3	38.3	81	33.0	0	0	---	0.00	30.242 
08:40	38.5	38.5	38.5	80	32.9	0	0	---	0.00	30.242 
08:45	38.8	38.8	38.8	79	32.9	0	1	270	0.00	30.242 
08:50	38.9	38.9	38.9	78	32.6	0	1	270	0.00	30.242 
08:55	39.3	39.3	39.3	77	32.7	0	1	270	0.00	30.242 
09:00	39.9	39.9	39.9	77	33.3	0	1	270	0.00	30.239 
09:05	40.8	40.8	40.8	74	33.2	0	1	270	0.00	30.239 
09:10	41.8	41.8	41.8	72	33.4	0	0	---	0.00	30.239 
09:15	42.8	42.8	42.8	70	33.7	0	1	270	0.00	30.239 
09:20	43.6	43.6	43.6	68	33.7	0	1	270	0.00	30.239 
09:25	44.2	44.2	44.2	66	33.6	0	1	270	0.00	30.239 
09:30	44.6	44.6	44.6	65	33.6	0	1	270	0.00	30.231 
09:35	45.1	45.1	45.1	65	34.0	0	1	270	0.00	30.231 
09:40	45.5	45.5	45.5	64	34.0	0	1	270	0.00	30.231 
09:45	45.8	45.8	45.8	64	34.3	0	1	270	0.00	30.236 
09:50	46.1	46.1	46.1	64	34.6	0	1	270	0.00	30.236 
09:55	46.2	46.2	46.2	64	34.7	0	1	270	0.00	30.236 
10:00	46.7	46.7	46.7	64	35.2	0	1	270	0.00	30.238 
10:05	47.3	47.3	47.3	62	34.9	0	1	270	0.00	30.238 
10:10	48.0	48.0	48.0	62	35.6	0	1	270	0.00	30.238 
10:15	48.8	48.8	48.8	61	36.0	0	1	270	0.00	30.236 
10:20	49.4	49.4	49.4	60	36.1	0	1	270	0.00	30.236 
10:25	50.1	50.1	50.1	58	35.9	0	1	270	0.00	30.236 
10:30	51.0	51.0	51.0	55	35.4	0	1	270	0.00	30.233 
10:35	51.7	51.7	51.7	52	34.6	0	3	270	0.00	30.233 
10:40	52.8	52.8	52.8	47	33.1	0	3	112	0.00	30.233 
10:45	53.3	53.3	53.3	44	31.9	0	1	112	0.00	30.235 
10:50	53.9	53.9	53.9	45	33.1	0	1	112	0.00	30.235 
10:55	54.5	54.5	54.5	45	33.6	0	2	112	0.00	30.235 
11:00	55.1	55.1	55.1	42	32.4	0	2	112	0.00	30.227 
11:05	55.4	55.4	55.4	40	31.5	0	2	112	0.00	30.227 
11:10	55.7	55.7	55.7	40	31.8	0	1	112	0.00	30.227 
11:15	55.9	55.9	55.9	38	30.7	0	1	112	0.00	30.226 
11:20	56.0	56.0	56.0	38	30.8	0	1	112	0.00	30.226 
11:25	56.5	56.5	56.5	39	31.8	0	1	112	0.00	30.226 
11:30	56.7	56.7	56.7	39	32.0	0	2	112	0.00	30.222 
11:35	57.0	57.0	57.0	39	32.3	0	3	112	0.00	30.222 
11:40	57.3	57.3	57.3	38	31.9	0	1	112	0.00	30.222 
11:45	57.5	57.5	57.5	36	30.8	0	0	---	0.00	30.214 
11:50	57.8	57.8	57.8	37	31.7	0	1	112	0.00	30.214 
11:55	58.1	58.1	58.1	36	31.3	0	3	112	0.00	30.214 
12:00	58.3	58.3	58.3	36	31.5	0	2	112	0.00	30.209 
12:05	58.4	58.4	58.4	35	30.9	0	1	112	0.00	30.209 
12:10	58.7	58.7	58.7	33	29.7	1	5	112	0.00	30.209 
12:15	58.9	58.9	58.9	36	32.0	0	1	112	0.00	30.205 
12:20	59.0	59.0	59.0	33	29.9	0	1	112	0.00	30.205 
12:25	59.2	59.2	59.2	34	30.8	0	2	112	0.00	30.205 
12:30	59.3	59.3	59.3	34	30.9	0	2	112	0.00	30.199 
12:35	59.3	59.3	59.3	32	29.4	0	2	112	0.00	30.199 
12:40	59.5	59.5	59.5	31	28.8	1	3	112	0.00	30.199 
12:45	59.6	59.6	59.6	34	31.2	0	3	112	0.00	30.195 
12:50	59.8	59.8	59.8	35	32.1	0	3	112	0.00	30.195 
12:55	59.9	59.9	59.9	33	30.7	1	5	90	0.00	30.195 
13:00	59.9	59.9	59.9	33	30.7	1	2	90	0.00	30.190 
13:05	59.8	59.8	59.8	35	32.1	0	3	90	0.00	30.190 
13:10	59.8	59.8	59.8	34	31.4	0	3	90	0.00	30.190 
13:15	59.8	59.8	59.8	32	29.9	1	3	68	0.00	30.183 
13:20	59.6	59.6	59.6	32	29.7	0	2	45	0.00	30.183 
13:25	59.6	59.6	59.6	30	28.1	0	4	112	0.00	30.183 
13:30	59.6	59.6	59.6	35	31.9	1	5	90	0.00	30.178 
13:35	59.8	59.8	59.8	31	29.1	0	2	112	0.00	30.178 
13:40	59.9	59.9	59.9	30	28.4	1	3	112	0.00	30.178 
13:45	59.9	59.9	59.9	31	29.2	0	2	112	0.00	30.174 
13:50	59.9	59.9	59.9	32	30.0	0	3	112	0.00	30.174 
13:55	59.9	59.9	59.9	32	30.0	0	3	112	0.00	30.174 
14:00	59.9	59.9	59.9	30	28.4	1	4	112	0.00	30.168 
14:05	59.9	59.9	59.9	29	27.6	1	4	112	0.00	30.168 
14:10	59.9	59.9	59.9	30	28.4	1	3	112	0.00	30.168 
14:15	59.8	59.8	59.8	31	29.1	0	3	112	0.00	30.168 
14:20	59.8	59.8	59.8	29	27.5	1	4	112	0.00	30.168 
14:25	59.6	59.6	59.6	31	28.9	0	2	112	0.00	30.168 
14:30	59.6	59.6	59.6	32	29.7	0	2	112	0.00	30.162 
14:35	59.5	59.5	59.5	31	28.8	0	2	112	0.00	30.162 
14:40	59.3	59.3	59.3	30	27.9	0	3	112	0.00	30.162 
14:45	59.3	59.3	59.3	31	28.7	0	3	112	0.00	30.162 
14:50	59.5	59.5	59.5	33	30.4	0	3	112	0.00	30.162 
14:55	59.3	59.3	59.3	31	28.7	0	1	112	0.00	30.162 
15:00	59.3	59.3	59.3	30	27.9	0	2	112	0.00	30.158 
15:05	59.3	59.3	59.3	31	28.7	0	1	112	0.00	30.158 
15:10	59.3	59.3	59.3	31	28.7	0	2	112	0.00	30.158 
15:15	59.2	59.2	59.2	31	28.6	0	1	135	0.00	30.158 
15:20	59.0	59.0	59.0	30	27.6	0	6	90	0.00	30.158 
15:25	58.9	58.9	58.9	30	27.5	1	3	90	0.00	30.158 
15:30	58.7	58.7	58.7	30	27.4	0	3	90	0.00	30.162 
15:35	58.7	58.7	58.7	31	28.1	0	2	90	0.00	30.162 
15:40	58.6	58.6	58.6	32	28.8	0	1	90	0.00	30.162 
15:45	58.6	58.6	58.6	32	28.8	0	2	90	0.00	30.165 
15:50	58.4	58.4	58.4	33	29.4	0	1	90	0.00	30.165 
15:55	58.3	58.3	58.3	34	30.1	0	1	90	0.00	30.165 
16:00	58.1	58.1	58.1	34	29.9	0	2	90	0.00	30.168 
16:05	58.1	58.1	58.1	34	29.9	0	1	90	0.00	30.168 
16:10	58.0	58.0	58.0	35	30.5	0	1	90	0.00	30.168 
16:15	58.0	58.0	58.0	35	30.5	0	1	90	0.00	30.172 
16:20	57.8	57.8	57.8	36	31.0	0	1	90	0.00	30.172 
16:25	57.6	57.6	57.6	36	30.8	0	1	90	0.00	30.172 
16:30	57.5	57.5	57.5	36	30.8	0	0	---	0.00	30.172 
16:35	57.3	57.3	57.3	37	31.3	0	1	90	0.00	30.172 
16:40	57.2	57.2	57.2	37	31.2	0	0	---	0.00	30.172 
16:45	57.0	57.0	57.0	37	31.0	0	1	90	0.00	30.173 
16:50	56.9	56.9	56.9	37	30.9	0	1	90	0.00	30.173 
16:55	56.7	56.7	56.7	38	31.4	0	1	90	0.00	30.173 
17:00	56.6	56.6	56.6	39	31.9	0	1	90	0.00	30.173 
17:05	56.5	56.5	56.5	38	31.2	0	1	90	0.00	30.173 
17:10	56.3	56.3	56.3	39	31.7	0	0	---	0.00	30.173 
17:15	56.0	56.0	56.0	39	31.4	0	0	---	0.00	30.175 
17:20	55.9	55.9	55.9	40	31.9	0	0	---	0.00	30.175 
17:25	55.6	55.6	55.6	41	32.3	0	0	---	0.00	30.175 
17:30	55.3	55.3	55.3	41	32.0	0	0	---	0.00	30.179 
17:35	55.1	55.1	55.1	41	31.8	0	0	---	0.00	30.179 
17:40	55.0	55.0	55.0	42	32.3	0	0	---	0.00	30.179 
17:45	54.7	54.7	54.7	43	32.6	0	0	---	0.00	30.183 
17:50	54.4	54.4	54.4	43	32.4	0	0	---	0.00	30.183 
17:55	54.2	54.2	54.2	45	33.3	0	0	---	0.00	30.183 
18:00	53.9	53.9	53.9	44	32.5	0	0	---	0.00	30.188 
18:05	53.6	53.6	53.6	44	32.2	0	0	---	0.00	30.188 
18:10	53.5	53.5	53.5	44	32.1	0	0	---	0.00	30.188 
18:15	53.5	53.5	53.5	44	32.1	0	0	---	0.00	30.189 
18:20	53.3	53.3	53.3	45	32.5	0	0	---	0.00	30.189 
18:25	53.3	53.3	53.3	44	31.9	0	0	---	0.00	30.189 
18:30	53.3	53.3	53.3	43	31.4	0	1	90	0.00	30.190 
18:35	53.5	53.5	53.5	43	31.6	0	1	90	0.00	30.190 
18:40	53.6	53.6	53.6	42	31.1	0	1	90	0.00	30.190 
18:45	53.9	53.9	53.9	41	30.7	0	3	90	0.00	30.193 
18:50	54.1	54.1	54.1	41	30.9	0	2	90	0.00	30.193 
18:55	54.2	54.2	54.2	39	29.8	0	2	90	0.00	30.193 
19:00	54.4	54.4	54.4	39	30.0	0	3	90	0.00	30.194 
19:05	54.4	54.4	54.4	40	30.6	0	1	90	0.00	30.194 
19:10	54.2	54.2	54.2	40	30.4	0	1	90	0.00	30.194 
19:15	54.1	54.1	54.1	40	30.3	0	2	90	0.00	30.196 
19:20	54.1	54.1	54.1	40	30.3	0	2	90	0.00	30.196 
19:25	53.9	53.9	53.9	40	30.1	0	2	90	0.00	30.196 
19:30	53.9	53.9	53.9	40	30.1	0	2	90	0.00	30.194 
19:35	53.8	53.8	53.8	40	30.1	0	2	90	0.00	30.194 
19:40	53.6	53.6	53.6	41	30.5	0	1	90	0.00	30.194 
19:45	53.6	53.6	53.6	41	30.5	0	2	90	0.00	30.193 
19:50	53.5	53.5	53.5	41	30.4	0	1	90	0.00	30.193 
19:55	53.3	53.3	53.3	42	30.8	0	2	90	0.00	30.193 
20:00	53.2	53.2	53.2	43	31.3	0	1	90	0.00	30.191 
20:05	53.1	53.1	53.1	43	31.2	0	1	90	0.00	30.191 
20:10	52.9	52.9	52.9	43	31.0	0	1	90	0.00	30.191 
20:15	52.9	52.9	52.9	43	31.0	0	1	90	0.00	30.184 
20:20	52.8	52.8	52.8	44	31.5	0	2	90	0.00	30.184 
20:25	52.8	52.8	52.8	44	31.5	0	2	90	0.00	30.184 
20:30	52.8	52.8	52.8	44	31.5	0	2	90	0.00	30.180 
20:35	52.6	52.6	52.6	45	31.9	0	1	90	0.00	30.180 
20:40	52.5	52.5	52.5	46	32.3	0	1	90	0.00	30.180 
20:45	52.3	52.3	52.3	46	32.1	0	1	90	0.00	30.180 
20:50	52.2	52.2	52.2	46	32.1	0	2	90	0.00	30.180 
20:55	52.2	52.2	52.2	46	32.1	0	1	90	0.00	30.180 
21:00	52.2	52.2	52.2	46	32.1	0	1	90	0.00	30.179 
21:05	52.0	52.0	52.0	47	32.4	0	1	90	0.00	30.179 
21:10	52.0	52.0	52.0	47	32.4	0	1	90	0.00	30.179 
21:15	52.0	52.0	52.0	48	32.9	0	1	90	0.00	30.173 
21:20	51.9	51.9	51.9	49	33.3	0	0	---	0.00	30.173 
21:25	51.7	51.7	51.7	49	33.2	0	2	90	0.00	30.173 
21:30	51.6	51.6	51.6	49	33.1	0	1	90	0.00	30.177 
21:35	51.6	51.6	51.6	50	33.6	0	1	90	0.00	30.177 
21:40	51.4	51.4	51.4	50	33.4	0	1	90	0.00	30.177 
21:45	51.3	51.3	51.3	51	33.8	0	0	---	0.00	30.173 
21:50	51.3	51.3	51.3	51	33.8	0	0	---	0.00	30.173 
21:55	51.1	51.1	51.1	52	34.1	0	1	90	0.00	30.173 
22:00	51.0	51.0	51.0	52	34.0	0	0	---	0.00	30.168 
22:05	50.8	50.8	50.8	53	34.3	0	0	---	0.00	30.168 
22:10	50.8	50.8	50.8	53	34.3	0	1	90	0.00	30.168 
22:15	50.7	50.7	50.7	53	34.2	0	0	---	0.00	30.159 
22:20	50.5	50.5	50.5	54	34.5	0	0	---	0.00	30.159 
22:25	50.5	50.5	50.5	53	34.0	0	0	---	0.00	30.159 
22:30	50.4	50.4	50.4	54	34.4	0	0	---	0.00	30.159 
22:35	50.4	50.4	50.4	54	34.4	0	0	---	0.00	30.159 
22:40	50.2	50.2	50.2	54	34.2	0	1	90	0.00	30.159 
22:45	50.2	50.2	50.2	54	34.2	0	1	90	0.00	30.153 
22:50	50.2	50.2	50.2	54	34.2	0	0	---	0.00	30.153 
22:55	50.1	50.1	50.1	55	34.6	0	0	---	0.00	30.153 
23:00	49.9	49.9	49.9	55	34.4	0	0	---	0.00	30.146 
23:05	49.8	49.8	49.8	55	34.3	0	0	---	0.00	30.146 
23:10	49.6	49.6	49.6	56	34.6	0	0	---	0.00	30.146 
23:15	49.5	49.5	49.5	56	34.5	0	0	---	0.00	30.142 
23:20	49.5	49.5	49.5	56	34.5	0	1	90	0.00	30.142 
23:25	49.4	49.4	49.4	56	34.4	0	1	90	0.00	30.142 
23:30	49.4	49.4	49.4	57	34.8	0	0	---	0.00	30.148 
23:35	49.2	49.2	49.2	58	35.1	0	0	---	0.00	30.148 
23:40	49.1	49.1	49.1	58	35.0	0	1	90	0.00	30.148 
23:45	48.9	48.9	48.9	59	35.2	0	0	---	0.00	30.147 
23:50	48.9	48.9	48.9	59	35.2	0	0	---	0.00	30.147 
23:55	48.8	48.8	48.8	59	35.1	0	0	---	0.00	30.147 

CoCoRaHS
IN-AL-39
A2 Web Hosting
Creative Commons License
GoDaddy
search engine by freefind advanced

loaded 2018-11-13 01:28:35 • last modified 2010-11-18 10:43:29
Privacy PolicyDisclaimer
• wx.awcolley.com is powered by PmWiki v.2002016 •
• all content (unless otherwise noted) © 2018 A W Colley